Terminal Aerodrome Forecast
Issued by NWS Brownsville, TX

Home | Current Version | Previous Version | Text Only | Print | Product List | Glossary On
Versions: 1 2 3 4 5 6 7 8 9 10 11 12 13 14 15 16 17
000
FTUS44 KBRO 170529
TAFHRL
TAF
KHRL 170529Z 1706/1806 33006KT P6SM SKC
     FM171800 02012KT P6SM SKC
     FM180000 05007KT P6SM SKC=

USA.gov is the U.S. government's official web portal to all federal, state and local government web resources and services.